sensor_id;sensor_type;location;lat;lon;timestamp;P1;durP1;ratioP1;P2;durP2;ratioP2
1479;SDS011;732;51.698;4.886;2023-02-20T00:01:46;13.20;;;6.77;;
1479;SDS011;732;51.698;4.886;2023-02-20T00:04:17;13.83;;;8.60;;
1479;SDS011;732;51.698;4.886;2023-02-20T00:06:45;17.10;;;7.77;;
1479;SDS011;732;51.698;4.886;2023-02-20T00:09:14;18.70;;;8.20;;
1479;SDS011;732;51.698;4.886;2023-02-20T00:11:43;15.77;;;7.73;;
1479;SDS011;732;51.698;4.886;2023-02-20T00:14:12;15.13;;;8.40;;
1479;SDS011;732;51.698;4.886;2023-02-20T00:16:43;14.77;;;7.77;;
1479;SDS011;732;51.698;4.886;2023-02-20T00:19:14;17.30;;;9.07;;
1479;SDS011;732;51.698;4.886;2023-02-20T00:21:45;13.90;;;7.27;;
1479;SDS011;732;51.698;4.886;2023-02-20T00:24:15;15.97;;;7.70;;
1479;SDS011;732;51.698;4.886;2023-02-20T00:26:45;17.10;;;8.87;;
1479;SDS011;732;51.698;4.886;2023-02-20T00:29:15;15.87;;;7.40;;
1479;SDS011;732;51.698;4.886;2023-02-20T00:31:50;12.63;;;8.10;;
1479;SDS011;732;51.698;4.886;2023-02-20T00:34:20;12.03;;;8.53;;
1479;SDS011;732;51.698;4.886;2023-02-20T00:36:50;13.37;;;7.53;;
1479;SDS011;732;51.698;4.886;2023-02-20T00:39:19;16.20;;;8.60;;
1479;SDS011;732;51.698;4.886;2023-02-20T00:41:48;17.10;;;9.53;;
1479;SDS011;732;51.698;4.886;2023-02-20T00:44:17;15.83;;;8.50;;
1479;SDS011;732;51.698;4.886;2023-02-20T00:46:46;17.83;;;8.73;;
1479;SDS011;732;51.698;4.886;2023-02-20T00:49:16;14.50;;;8.50;;
1479;SDS011;732;51.698;4.886;2023-02-20T00:51:45;15.00;;;8.33;;
1479;SDS011;732;51.698;4.886;2023-02-20T00:54:14;16.27;;;8.50;;
1479;SDS011;732;51.698;4.886;2023-02-20T00:56:43;18.13;;;8.53;;
1479;SDS011;732;51.698;4.886;2023-02-20T00:59:12;17.60;;;8.70;;
1479;SDS011;732;51.698;4.886;2023-02-20T01:01:41;18.50;;;9.17;;
1479;SDS011;732;51.698;4.886;2023-02-20T01:04:10;22.60;;;9.20;;
1479;SDS011;732;51.698;4.886;2023-02-20T01:06:42;16.30;;;8.90;;
1479;SDS011;732;51.698;4.886;2023-02-20T01:09:10;15.23;;;8.47;;
1479;SDS011;732;51.698;4.886;2023-02-20T01:11:40;17.43;;;9.00;;
1479;SDS011;732;51.698;4.886;2023-02-20T01:14:09;17.00;;;9.17;;
1479;SDS011;732;51.698;4.886;2023-02-20T01:16:42;32.33;;;11.23;;
1479;SDS011;732;51.698;4.886;2023-02-20T01:19:12;15.43;;;9.00;;
1479;SDS011;732;51.698;4.886;2023-02-20T01:21:43;22.50;;;10.10;;
1479;SDS011;732;51.698;4.886;2023-02-20T01:24:12;14.73;;;9.33;;
1479;SDS011;732;51.698;4.886;2023-02-20T01:26:40;18.77;;;9.47;;
1479;SDS011;732;51.698;4.886;2023-02-20T01:29:12;16.33;;;8.97;;
1479;SDS011;732;51.698;4.886;2023-02-20T01:31:45;20.00;;;9.83;;
1479;SDS011;732;51.698;4.886;2023-02-20T01:34:15;20.70;;;9.57;;
1479;SDS011;732;51.698;4.886;2023-02-20T01:36:47;16.57;;;9.50;;
1479;SDS011;732;51.698;4.886;2023-02-20T01:39:18;22.03;;;9.93;;
1479;SDS011;732;51.698;4.886;2023-02-20T01:41:49;22.30;;;9.00;;
1479;SDS011;732;51.698;4.886;2023-02-20T01:44:22;17.97;;;9.60;;
1479;SDS011;732;51.698;4.886;2023-02-20T01:46:53;15.67;;;9.87;;
1479;SDS011;732;51.698;4.886;2023-02-20T01:49:26;20.97;;;11.77;;
1479;SDS011;732;51.698;4.886;2023-02-20T01:52:13;19.03;;;10.80;;
1479;SDS011;732;51.698;4.886;2023-02-20T01:54:47;21.83;;;10.50;;
1479;SDS011;732;51.698;4.886;2023-02-20T01:57:23;20.10;;;9.47;;
1479;SDS011;732;51.698;4.886;2023-02-20T01:59:55;22.63;;;11.07;;
1479;SDS011;732;51.698;4.886;2023-02-20T02:02:41;24.70;;;10.43;;
1479;SDS011;732;51.698;4.886;2023-02-20T02:05:15;20.30;;;11.00;;
1479;SDS011;732;51.698;4.886;2023-02-20T02:07:46;26.83;;;12.10;;
1479;SDS011;732;51.698;4.886;2023-02-20T02:10:15;21.20;;;12.03;;
1479;SDS011;732;51.698;4.886;2023-02-20T02:12:50;24.70;;;11.73;;
1479;SDS011;732;51.698;4.886;2023-02-20T02:15:22;24.53;;;11.00;;
1479;SDS011;732;51.698;4.886;2023-02-20T02:17:57;29.10;;;13.07;;
1479;SDS011;732;51.698;4.886;2023-02-20T02:20:59;28.37;;;12.90;;
1479;SDS011;732;51.698;4.886;2023-02-20T02:27:26;24.47;;;12.37;;
1479;SDS011;732;51.698;4.886;2023-02-20T02:34:14;27.30;;;13.47;;
1479;SDS011;732;51.698;4.886;2023-02-20T02:37:30;31.00;;;11.33;;
1479;SDS011;732;51.698;4.886;2023-02-20T02:40:07;36.83;;;12.17;;
1479;SDS011;732;51.698;4.886;2023-02-20T02:42:47;30.13;;;15.30;;
1479;SDS011;732;51.698;4.886;2023-02-20T02:45:26;24.67;;;13.70;;
1479;SDS011;732;51.698;4.886;2023-02-20T02:48:04;28.20;;;13.40;;
1479;SDS011;732;51.698;4.886;2023-02-20T02:50:39;29.47;;;13.60;;
1479;SDS011;732;51.698;4.886;2023-02-20T02:53:13;31.03;;;12.97;;
1479;SDS011;732;51.698;4.886;2023-02-20T02:55:42;27.37;;;13.37;;
1479;SDS011;732;51.698;4.886;2023-02-20T02:58:10;29.73;;;14.27;;
1479;SDS011;732;51.698;4.886;2023-02-20T03:00:42;30.57;;;13.30;;
1479;SDS011;732;51.698;4.886;2023-02-20T03:03:17;28.93;;;12.30;;
1479;SDS011;732;51.698;4.886;2023-02-20T03:05:50;25.57;;;13.80;;
1479;SDS011;732;51.698;4.886;2023-02-20T03:08:26;27.27;;;12.90;;
1479;SDS011;732;51.698;4.886;2023-02-20T03:11:04;34.07;;;12.87;;
1479;SDS011;732;51.698;4.886;2023-02-20T03:13:38;26.73;;;12.60;;
1479;SDS011;732;51.698;4.886;2023-02-20T03:16:29;30.73;;;13.47;;
1479;SDS011;732;51.698;4.886;2023-02-20T03:19:08;28.10;;;14.03;;
1479;SDS011;732;51.698;4.886;2023-02-20T03:21:43;29.40;;;14.20;;
1479;SDS011;732;51.698;4.886;2023-02-20T03:24:16;32.50;;;13.63;;
1479;SDS011;732;51.698;4.886;2023-02-20T03:26:48;35.87;;;15.33;;
1479;SDS011;732;51.698;4.886;2023-02-20T03:29:21;35.20;;;15.97;;
1479;SDS011;732;51.698;4.886;2023-02-20T03:31:56;31.97;;;15.67;;
1479;SDS011;732;51.698;4.886;2023-02-20T03:34:47;37.67;;;15.23;;
1479;SDS011;732;51.698;4.886;2023-02-20T03:37:36;30.73;;;14.90;;
1479;SDS011;732;51.698;4.886;2023-02-20T03:40:28;28.93;;;14.50;;
1479;SDS011;732;51.698;4.886;2023-02-20T03:43:17;39.17;;;15.73;;
1479;SDS011;732;51.698;4.886;2023-02-20T03:45:55;35.10;;;14.50;;
1479;SDS011;732;51.698;4.886;2023-02-20T03:48:31;36.70;;;15.33;;
1479;SDS011;732;51.698;4.886;2023-02-20T03:51:09;35.50;;;14.70;;
1479;SDS011;732;51.698;4.886;2023-02-20T03:53:46;39.20;;;16.10;;
1479;SDS011;732;51.698;4.886;2023-02-20T03:56:17;38.30;;;14.00;;
1479;SDS011;732;51.698;4.886;2023-02-20T03:58:50;40.00;;;14.63;;
1479;SDS011;732;51.698;4.886;2023-02-20T04:01:23;28.93;;;13.83;;
1479;SDS011;732;51.698;4.886;2023-02-20T04:03:55;34.20;;;16.70;;
1479;SDS011;732;51.698;4.886;2023-02-20T04:06:28;36.10;;;15.27;;
1479;SDS011;732;51.698;4.886;2023-02-20T04:09:01;31.07;;;14.57;;
1479;SDS011;732;51.698;4.886;2023-02-20T04:11:39;35.00;;;14.53;;
1479;SDS011;732;51.698;4.886;2023-02-20T04:14:14;33.53;;;15.43;;
1479;SDS011;732;51.698;4.886;2023-02-20T04:16:50;32.07;;;14.90;;
1479;SDS011;732;51.698;4.886;2023-02-20T04:19:25;27.77;;;14.70;;
1479;SDS011;732;51.698;4.886;2023-02-20T04:21:55;33.73;;;14.20;;
1479;SDS011;732;51.698;4.886;2023-02-20T04:24:29;33.57;;;13.73;;
1479;SDS011;732;51.698;4.886;2023-02-20T04:27:04;34.27;;;14.87;;
1479;SDS011;732;51.698;4.886;2023-02-20T04:29:39;30.27;;;13.83;;
1479;SDS011;732;51.698;4.886;2023-02-20T04:32:09;33.27;;;13.60;;
1479;SDS011;732;51.698;4.886;2023-02-20T04:34:38;25.93;;;12.00;;
1479;SDS011;732;51.698;4.886;2023-02-20T04:37:10;33.87;;;13.10;;
1479;SDS011;732;51.698;4.886;2023-02-20T04:39:41;33.97;;;13.87;;
1479;SDS011;732;51.698;4.886;2023-02-20T04:42:11;34.17;;;14.73;;
1479;SDS011;732;51.698;4.886;2023-02-20T04:44:41;34.37;;;14.40;;
1479;SDS011;732;51.698;4.886;2023-02-20T04:47:12;34.27;;;15.10;;
1479;SDS011;732;51.698;4.886;2023-02-20T04:49:43;35.50;;;15.47;;
1479;SDS011;732;51.698;4.886;2023-02-20T04:52:17;32.80;;;15.83;;
1479;SDS011;732;51.698;4.886;2023-02-20T04:54:45;29.37;;;14.03;;
1479;SDS011;732;51.698;4.886;2023-02-20T04:57:17;36.13;;;15.63;;
1479;SDS011;732;51.698;4.886;2023-02-20T04:59:46;36.10;;;15.43;;
1479;SDS011;732;51.698;4.886;2023-02-20T05:02:14;37.90;;;14.60;;
1479;SDS011;732;51.698;4.886;2023-02-20T05:04:43;35.73;;;14.30;;
1479;SDS011;732;51.698;4.886;2023-02-20T05:07:11;28.83;;;13.60;;
1479;SDS011;732;51.698;4.886;2023-02-20T05:09:43;34.73;;;14.20;;
1479;SDS011;732;51.698;4.886;2023-02-20T05:12:11;45.30;;;15.80;;
1479;SDS011;732;51.698;4.886;2023-02-20T05:14:41;31.70;;;14.17;;
1479;SDS011;732;51.698;4.886;2023-02-20T05:17:10;36.30;;;15.30;;
1479;SDS011;732;51.698;4.886;2023-02-20T05:19:39;31.20;;;13.80;;
1479;SDS011;732;51.698;4.886;2023-02-20T05:22:08;28.87;;;12.50;;
1479;SDS011;732;51.698;4.886;2023-02-20T05:24:48;30.67;;;13.60;;
1479;SDS011;732;51.698;4.886;2023-02-20T05:27:18;32.40;;;14.20;;
1479;SDS011;732;51.698;4.886;2023-02-20T05:29:51;31.50;;;13.23;;
1479;SDS011;732;51.698;4.886;2023-02-20T05:32:22;40.77;;;13.80;;
1479;SDS011;732;51.698;4.886;2023-02-20T05:34:53;33.10;;;12.33;;
1479;SDS011;732;51.698;4.886;2023-02-20T05:37:22;35.73;;;12.60;;
1479;SDS011;732;51.698;4.886;2023-02-20T05:39:53;33.27;;;13.17;;
1479;SDS011;732;51.698;4.886;2023-02-20T05:42:22;31.70;;;13.70;;
1479;SDS011;732;51.698;4.886;2023-02-20T05:44:52;36.90;;;14.03;;
1479;SDS011;732;51.698;4.886;2023-02-20T05:47:20;31.23;;;14.20;;
1479;SDS011;732;51.698;4.886;2023-02-20T05:49:48;24.90;;;11.23;;
1479;SDS011;732;51.698;4.886;2023-02-20T05:52:17;28.00;;;13.00;;
1479;SDS011;732;51.698;4.886;2023-02-20T05:54:45;30.57;;;13.50;;
1479;SDS011;732;51.698;4.886;2023-02-20T05:57:14;38.60;;;15.43;;
1479;SDS011;732;51.698;4.886;2023-02-20T05:59:42;33.00;;;14.10;;
1479;SDS011;732;51.698;4.886;2023-02-20T06:02:12;28.80;;;12.30;;
1479;SDS011;732;51.698;4.886;2023-02-20T06:04:41;36.83;;;15.23;;
1479;SDS011;732;51.698;4.886;2023-02-20T06:07:09;36.93;;;14.50;;
1479;SDS011;732;51.698;4.886;2023-02-20T06:09:40;35.90;;;14.97;;
1479;SDS011;732;51.698;4.886;2023-02-20T06:12:10;32.87;;;15.77;;
1479;SDS011;732;51.698;4.886;2023-02-20T06:14:40;34.50;;;15.93;;
1479;SDS011;732;51.698;4.886;2023-02-20T06:17:08;36.90;;;15.43;;
1479;SDS011;732;51.698;4.886;2023-02-20T06:19:38;36.90;;;15.57;;
1479;SDS011;732;51.698;4.886;2023-02-20T06:22:07;37.37;;;15.33;;
1479;SDS011;732;51.698;4.886;2023-02-20T06:24:36;29.27;;;13.80;;
1479;SDS011;732;51.698;4.886;2023-02-20T06:27:05;31.13;;;14.40;;
1479;SDS011;732;51.698;4.886;2023-02-20T06:29:34;36.90;;;14.20;;
1479;SDS011;732;51.698;4.886;2023-02-20T06:32:03;34.90;;;14.43;;
1479;SDS011;732;51.698;4.886;2023-02-20T06:34:32;31.30;;;12.97;;
1479;SDS011;732;51.698;4.886;2023-02-20T06:37:02;36.27;;;15.53;;
1479;SDS011;732;51.698;4.886;2023-02-20T06:39:31;34.47;;;15.90;;
1479;SDS011;732;51.698;4.886;2023-02-20T06:42:00;37.07;;;14.77;;
1479;SDS011;732;51.698;4.886;2023-02-20T06:44:28;36.37;;;14.67;;
1479;SDS011;732;51.698;4.886;2023-02-20T06:46:58;32.27;;;13.93;;
1479;SDS011;732;51.698;4.886;2023-02-20T06:49:27;32.90;;;13.87;;
1479;SDS011;732;51.698;4.886;2023-02-20T06:51:56;33.80;;;15.67;;
1479;SDS011;732;51.698;4.886;2023-02-20T06:54:26;35.80;;;15.53;;
1479;SDS011;732;51.698;4.886;2023-02-20T06:56:54;35.43;;;14.87;;
1479;SDS011;732;51.698;4.886;2023-02-20T06:59:24;28.00;;;13.70;;
1479;SDS011;732;51.698;4.886;2023-02-20T07:01:52;33.47;;;14.47;;
1479;SDS011;732;51.698;4.886;2023-02-20T07:04:22;33.83;;;15.97;;
1479;SDS011;732;51.698;4.886;2023-02-20T07:06:53;31.63;;;14.90;;
1479;SDS011;732;51.698;4.886;2023-02-20T07:09:21;41.80;;;14.10;;
1479;SDS011;732;51.698;4.886;2023-02-20T07:11:52;26.50;;;13.87;;
1479;SDS011;732;51.698;4.886;2023-02-20T07:14:21;28.73;;;13.77;;
1479;SDS011;732;51.698;4.886;2023-02-20T07:16:49;32.83;;;14.10;;
1479;SDS011;732;51.698;4.886;2023-02-20T07:19:18;34.50;;;16.00;;
1479;SDS011;732;51.698;4.886;2023-02-20T07:21:47;33.13;;;13.10;;
1479;SDS011;732;51.698;4.886;2023-02-20T07:24:16;27.63;;;12.63;;
1479;SDS011;732;51.698;4.886;2023-02-20T07:26:44;26.97;;;12.33;;
1479;SDS011;732;51.698;4.886;2023-02-20T07:29:15;38.37;;;14.53;;
1479;SDS011;732;51.698;4.886;2023-02-20T07:31:44;32.07;;;14.07;;
1479;SDS011;732;51.698;4.886;2023-02-20T07:34:13;37.23;;;14.57;;
1479;SDS011;732;51.698;4.886;2023-02-20T07:36:41;34.03;;;13.70;;
1479;SDS011;732;51.698;4.886;2023-02-20T07:39:11;33.03;;;14.27;;
1479;SDS011;732;51.698;4.886;2023-02-20T07:41:40;36.47;;;14.37;;
1479;SDS011;732;51.698;4.886;2023-02-20T07:44:30;30.50;;;14.57;;
1479;SDS011;732;51.698;4.886;2023-02-20T07:46:58;31.73;;;12.53;;
1479;SDS011;732;51.698;4.886;2023-02-20T07:49:27;22.30;;;11.17;;
1479;SDS011;732;51.698;4.886;2023-02-20T07:51:55;31.03;;;13.53;;
1479;SDS011;732;51.698;4.886;2023-02-20T07:54:24;35.83;;;13.10;;
1479;SDS011;732;51.698;4.886;2023-02-20T07:56:53;31.70;;;13.37;;
1479;SDS011;732;51.698;4.886;2023-02-20T07:59:22;24.37;;;11.90;;
1479;SDS011;732;51.698;4.886;2023-02-20T08:01:52;27.80;;;11.70;;
1479;SDS011;732;51.698;4.886;2023-02-20T08:04:21;28.47;;;13.40;;
1479;SDS011;732;51.698;4.886;2023-02-20T08:06:49;23.33;;;11.20;;
1479;SDS011;732;51.698;4.886;2023-02-20T08:09:18;29.80;;;13.37;;
1479;SDS011;732;51.698;4.886;2023-02-20T08:11:46;24.10;;;11.23;;
1479;SDS011;732;51.698;4.886;2023-02-20T08:14:15;26.73;;;11.70;;
1479;SDS011;732;51.698;4.886;2023-02-20T08:16:44;26.97;;;11.30;;
1479;SDS011;732;51.698;4.886;2023-02-20T08:19:14;24.33;;;11.23;;
1479;SDS011;732;51.698;4.886;2023-02-20T08:21:43;31.97;;;13.93;;
1479;SDS011;732;51.698;4.886;2023-02-20T08:24:11;28.50;;;13.30;;
1479;SDS011;732;51.698;4.886;2023-02-20T08:26:43;30.23;;;13.03;;
1479;SDS011;732;51.698;4.886;2023-02-20T08:29:12;27.70;;;12.90;;
1479;SDS011;732;51.698;4.886;2023-02-20T08:31:42;22.70;;;12.13;;
1479;SDS011;732;51.698;4.886;2023-02-20T08:34:12;26.20;;;11.33;;
1479;SDS011;732;51.698;4.886;2023-02-20T08:36:41;23.97;;;10.83;;
1479;SDS011;732;51.698;4.886;2023-02-20T08:39:10;28.27;;;12.27;;
1479;SDS011;732;51.698;4.886;2023-02-20T08:41:42;21.43;;;10.67;;
1479;SDS011;732;51.698;4.886;2023-02-20T08:44:11;31.70;;;11.13;;
1479;SDS011;732;51.698;4.886;2023-02-20T08:46:44;26.50;;;12.00;;
1479;SDS011;732;51.698;4.886;2023-02-20T08:49:16;35.97;;;13.17;;
1479;SDS011;732;51.698;4.886;2023-02-20T08:51:52;26.87;;;12.20;;
1479;SDS011;732;51.698;4.886;2023-02-20T08:54:23;27.77;;;12.00;;
1479;SDS011;732;51.698;4.886;2023-02-20T08:56:52;27.90;;;12.87;;
1479;SDS011;732;51.698;4.886;2023-02-20T08:59:21;28.77;;;13.97;;
1479;SDS011;732;51.698;4.886;2023-02-20T09:01:49;25.10;;;10.87;;
1479;SDS011;732;51.698;4.886;2023-02-20T09:04:19;27.97;;;13.50;;
1479;SDS011;732;51.698;4.886;2023-02-20T09:06:49;35.73;;;12.83;;
1479;SDS011;732;51.698;4.886;2023-02-20T09:09:18;27.90;;;12.70;;
1479;SDS011;732;51.698;4.886;2023-02-20T09:11:46;27.10;;;12.83;;
1479;SDS011;732;51.698;4.886;2023-02-20T09:14:15;25.90;;;13.03;;
1479;SDS011;732;51.698;4.886;2023-02-20T09:16:44;34.03;;;13.73;;
1479;SDS011;732;51.698;4.886;2023-02-20T09:19:12;36.17;;;14.60;;
1479;SDS011;732;51.698;4.886;2023-02-20T09:21:45;29.77;;;15.07;;
1479;SDS011;732;51.698;4.886;2023-02-20T09:24:15;26.00;;;12.77;;
1479;SDS011;732;51.698;4.886;2023-02-20T09:26:44;31.83;;;15.80;;
1479;SDS011;732;51.698;4.886;2023-02-20T09:29:13;25.23;;;12.17;;
1479;SDS011;732;51.698;4.886;2023-02-20T09:31:42;24.17;;;12.27;;
1479;SDS011;732;51.698;4.886;2023-02-20T09:34:11;33.10;;;12.47;;
1479;SDS011;732;51.698;4.886;2023-02-20T09:36:39;24.93;;;10.30;;
1479;SDS011;732;51.698;4.886;2023-02-20T09:39:09;17.67;;;9.37;;
1479;SDS011;732;51.698;4.886;2023-02-20T09:41:41;23.53;;;9.03;;
1479;SDS011;732;51.698;4.886;2023-02-20T09:44:29;21.53;;;10.57;;
1479;SDS011;732;51.698;4.886;2023-02-20T09:47:07;21.73;;;10.80;;
1479;SDS011;732;51.698;4.886;2023-02-20T09:49:55;25.67;;;10.53;;
1479;SDS011;732;51.698;4.886;2023-02-20T09:52:28;19.17;;;9.87;;
1479;SDS011;732;51.698;4.886;2023-02-20T09:55:03;23.90;;;10.77;;
1479;SDS011;732;51.698;4.886;2023-02-20T09:57:40;20.20;;;9.53;;
1479;SDS011;732;51.698;4.886;2023-02-20T10:00:11;25.17;;;11.03;;
1479;SDS011;732;51.698;4.886;2023-02-20T10:02:51;19.67;;;11.10;;
1479;SDS011;732;51.698;4.886;2023-02-20T10:05:27;19.40;;;10.57;;
1479;SDS011;732;51.698;4.886;2023-02-20T10:07:57;19.37;;;9.83;;
1479;SDS011;732;51.698;4.886;2023-02-20T10:10:28;17.30;;;9.57;;
1479;SDS011;732;51.698;4.886;2023-02-20T10:13:06;23.40;;;9.07;;
1479;SDS011;732;51.698;4.886;2023-02-20T10:15:56;20.07;;;10.60;;
1479;SDS011;732;51.698;4.886;2023-02-20T10:18:36;25.43;;;10.53;;
1479;SDS011;732;51.698;4.886;2023-02-20T10:21:14;21.37;;;8.60;;
1479;SDS011;732;51.698;4.886;2023-02-20T10:23:56;12.20;;;5.47;;
1479;SDS011;732;51.698;4.886;2023-02-20T10:26:38;11.80;;;6.03;;
1479;SDS011;732;51.698;4.886;2023-02-20T10:29:15;15.83;;;5.17;;
1479;SDS011;732;51.698;4.886;2023-02-20T10:31:48;10.17;;;5.30;;
1479;SDS011;732;51.698;4.886;2023-02-20T10:34:22;10.33;;;4.70;;
1479;SDS011;732;51.698;4.886;2023-02-20T10:36:59;9.20;;;4.73;;
1479;SDS011;732;51.698;4.886;2023-02-20T10:39:34;14.73;;;4.67;;
1479;SDS011;732;51.698;4.886;2023-02-20T10:42:08;9.10;;;5.20;;
1479;SDS011;732;51.698;4.886;2023-02-20T10:44:44;15.03;;;4.73;;
1479;SDS011;732;51.698;4.886;2023-02-20T10:47:19;7.50;;;4.47;;
1479;SDS011;732;51.698;4.886;2023-02-20T10:49:55;8.83;;;3.83;;
1479;SDS011;732;51.698;4.886;2023-02-20T10:52:30;9.23;;;4.40;;
1479;SDS011;732;51.698;4.886;2023-02-20T10:55:05;15.17;;;4.67;;
1479;SDS011;732;51.698;4.886;2023-02-20T10:57:41;9.03;;;3.67;;
1479;SDS011;732;51.698;4.886;2023-02-20T11:00:18;9.47;;;4.17;;
1479;SDS011;732;51.698;4.886;2023-02-20T11:02:53;13.03;;;4.30;;
1479;SDS011;732;51.698;4.886;2023-02-20T11:05:31;13.17;;;5.10;;
1479;SDS011;732;51.698;4.886;2023-02-20T11:08:07;8.93;;;5.33;;
1479;SDS011;732;51.698;4.886;2023-02-20T11:10:36;11.63;;;4.43;;
1479;SDS011;732;51.698;4.886;2023-02-20T11:13:09;8.23;;;4.20;;
1479;SDS011;732;51.698;4.886;2023-02-20T11:15:44;15.60;;;3.93;;
1479;SDS011;732;51.698;4.886;2023-02-20T11:18:16;11.90;;;4.67;;
1479;SDS011;732;51.698;4.886;2023-02-20T11:20:53;9.50;;;4.13;;
1479;SDS011;732;51.698;4.886;2023-02-20T11:23:33;5.13;;;3.37;;
1479;SDS011;732;51.698;4.886;2023-02-20T11:26:14;6.00;;;3.47;;
1479;SDS011;732;51.698;4.886;2023-02-20T11:28:58;5.73;;;3.27;;
1479;SDS011;732;51.698;4.886;2023-02-20T11:31:37;11.50;;;3.47;;
1479;SDS011;732;51.698;4.886;2023-02-20T11:34:09;8.73;;;3.70;;
1479;SDS011;732;51.698;4.886;2023-02-20T11:36:45;8.00;;;4.00;;
1479;SDS011;732;51.698;4.886;2023-02-20T11:39:22;5.87;;;3.63;;
1479;SDS011;732;51.698;4.886;2023-02-20T11:44:44;11.70;;;4.57;;
1479;SDS011;732;51.698;4.886;2023-02-20T11:47:21;10.00;;;4.43;;
1479;SDS011;732;51.698;4.886;2023-02-20T11:50:10;10.47;;;5.10;;
1479;SDS011;732;51.698;4.886;2023-02-20T11:52:56;10.60;;;5.13;;
1479;SDS011;732;51.698;4.886;2023-02-20T11:55:30;9.63;;;5.20;;
1479;SDS011;732;51.698;4.886;2023-02-20T11:57:59;5.27;;;3.83;;
1479;SDS011;732;51.698;4.886;2023-02-20T12:00:42;6.67;;;3.70;;
1479;SDS011;732;51.698;4.886;2023-02-20T12:03:17;9.37;;;3.80;;
1479;SDS011;732;51.698;4.886;2023-02-20T12:05:50;6.57;;;4.10;;
1479;SDS011;732;51.698;4.886;2023-02-20T12:08:22;6.33;;;3.30;;
1479;SDS011;732;51.698;4.886;2023-02-20T12:11:10;7.23;;;3.90;;
1479;SDS011;732;51.698;4.886;2023-02-20T12:13:42;5.53;;;3.33;;
1479;SDS011;732;51.698;4.886;2023-02-20T12:16:29;7.70;;;4.10;;
1479;SDS011;732;51.698;4.886;2023-02-20T12:19:10;6.33;;;4.27;;
1479;SDS011;732;51.698;4.886;2023-02-20T12:21:48;12.57;;;5.53;;
1479;SDS011;732;51.698;4.886;2023-02-20T12:24:36;16.27;;;6.10;;
1479;SDS011;732;51.698;4.886;2023-02-20T12:27:30;14.27;;;6.67;;
1479;SDS011;732;51.698;4.886;2023-02-20T12:30:17;14.37;;;8.70;;
1479;SDS011;732;51.698;4.886;2023-02-20T12:33:06;23.90;;;11.30;;
1479;SDS011;732;51.698;4.886;2023-02-20T12:35:57;23.80;;;12.87;;
1479;SDS011;732;51.698;4.886;2023-02-20T12:38:37;21.60;;;11.63;;
1479;SDS011;732;51.698;4.886;2023-02-20T12:41:21;23.07;;;13.00;;
1479;SDS011;732;51.698;4.886;2023-02-20T12:44:28;24.37;;;11.57;;
1479;SDS011;732;51.698;4.886;2023-02-20T12:47:18;28.30;;;12.53;;
1479;SDS011;732;51.698;4.886;2023-02-20T12:53:16;20.50;;;10.17;;
1479;SDS011;732;51.698;4.886;2023-02-20T12:56:19;20.37;;;10.80;;
1479;SDS011;732;51.698;4.886;2023-02-20T12:59:03;23.80;;;12.27;;
1479;SDS011;732;51.698;4.886;2023-02-20T13:01:41;21.90;;;11.37;;
1479;SDS011;732;51.698;4.886;2023-02-20T13:04:16;18.30;;;9.90;;
1479;SDS011;732;51.698;4.886;2023-02-20T13:06:55;23.53;;;11.37;;
1479;SDS011;732;51.698;4.886;2023-02-20T13:09:34;18.57;;;9.90;;
1479;SDS011;732;51.698;4.886;2023-02-20T13:12:08;22.73;;;10.10;;
1479;SDS011;732;51.698;4.886;2023-02-20T13:14:46;16.27;;;9.50;;
1479;SDS011;732;51.698;4.886;2023-02-20T13:17:28;19.33;;;9.13;;
1479;SDS011;732;51.698;4.886;2023-02-20T13:20:09;13.73;;;7.47;;
1479;SDS011;732;51.698;4.886;2023-02-20T13:22:58;15.13;;;8.83;;
1479;SDS011;732;51.698;4.886;2023-02-20T13:25:30;12.30;;;7.10;;
1479;SDS011;732;51.698;4.886;2023-02-20T13:28:24;9.73;;;7.10;;
1479;SDS011;732;51.698;4.886;2023-02-20T13:31:09;8.10;;;4.93;;
1479;SDS011;732;51.698;4.886;2023-02-20T13:33:42;15.00;;;4.80;;
1479;SDS011;732;51.698;4.886;2023-02-20T13:36:15;8.83;;;5.10;;
1479;SDS011;732;51.698;4.886;2023-02-20T13:45:00;9.63;;;4.97;;
1479;SDS011;732;51.698;4.886;2023-02-20T13:47:36;6.40;;;4.80;;
1479;SDS011;732;51.698;4.886;2023-02-20T13:53:03;17.43;;;7.70;;
1479;SDS011;732;51.698;4.886;2023-02-20T13:55:33;20.30;;;10.17;;
1479;SDS011;732;51.698;4.886;2023-02-20T13:58:04;37.10;;;17.27;;
1479;SDS011;732;51.698;4.886;2023-02-20T14:00:49;36.03;;;19.53;;
1479;SDS011;732;51.698;4.886;2023-02-20T14:03:22;30.13;;;15.20;;
1479;SDS011;732;51.698;4.886;2023-02-20T14:06:05;29.97;;;16.30;;
1479;SDS011;732;51.698;4.886;2023-02-20T14:08:38;38.50;;;18.23;;
1479;SDS011;732;51.698;4.886;2023-02-20T14:11:11;34.50;;;17.70;;
1479;SDS011;732;51.698;4.886;2023-02-20T14:13:42;33.50;;;17.00;;
1479;SDS011;732;51.698;4.886;2023-02-20T14:16:25;29.80;;;16.60;;
1479;SDS011;732;51.698;4.886;2023-02-20T14:18:57;30.90;;;16.87;;
1479;SDS011;732;51.698;4.886;2023-02-20T14:21:30;29.80;;;16.53;;
1479;SDS011;732;51.698;4.886;2023-02-20T14:24:10;32.00;;;17.13;;
1479;SDS011;732;51.698;4.886;2023-02-20T14:26:46;26.83;;;13.53;;
1479;SDS011;732;51.698;4.886;2023-02-20T14:29:20;24.93;;;14.67;;
1479;SDS011;732;51.698;4.886;2023-02-20T14:31:53;23.20;;;13.20;;
1479;SDS011;732;51.698;4.886;2023-02-20T14:34:26;28.53;;;16.77;;
1479;SDS011;732;51.698;4.886;2023-02-20T14:37:10;26.33;;;14.87;;
1479;SDS011;732;51.698;4.886;2023-02-20T14:39:47;28.20;;;14.50;;
1479;SDS011;732;51.698;4.886;2023-02-20T14:42:28;25.57;;;13.43;;
1479;SDS011;732;51.698;4.886;2023-02-20T14:44:58;26.27;;;13.60;;
1479;SDS011;732;51.698;4.886;2023-02-20T14:47:30;28.47;;;14.17;;
1479;SDS011;732;51.698;4.886;2023-02-20T14:50:13;22.97;;;11.97;;
1479;SDS011;732;51.698;4.886;2023-02-20T14:52:44;25.00;;;13.03;;
1479;SDS011;732;51.698;4.886;2023-02-20T14:55:14;25.10;;;13.47;;
1479;SDS011;732;51.698;4.886;2023-02-20T14:57:48;20.43;;;12.37;;
1479;SDS011;732;51.698;4.886;2023-02-20T15:03:05;25.67;;;12.80;;
1479;SDS011;732;51.698;4.886;2023-02-20T15:05:58;21.60;;;11.60;;
1479;SDS011;732;51.698;4.886;2023-02-20T15:08:30;25.70;;;11.70;;
1479;SDS011;732;51.698;4.886;2023-02-20T15:11:05;22.00;;;11.40;;
1479;SDS011;732;51.698;4.886;2023-02-20T15:13:37;20.10;;;11.20;;
1479;SDS011;732;51.698;4.886;2023-02-20T15:16:12;21.63;;;12.50;;
1479;SDS011;732;51.698;4.886;2023-02-20T15:18:45;22.53;;;11.73;;
1479;SDS011;732;51.698;4.886;2023-02-20T15:21:28;24.47;;;12.57;;
1479;SDS011;732;51.698;4.886;2023-02-20T15:27:07;26.00;;;14.03;;
1479;SDS011;732;51.698;4.886;2023-02-20T15:29:43;27.90;;;15.57;;
1479;SDS011;732;51.698;4.886;2023-02-20T15:32:14;32.40;;;16.17;;
1479;SDS011;732;51.698;4.886;2023-02-20T15:34:48;30.93;;;16.27;;
1479;SDS011;732;51.698;4.886;2023-02-20T15:37:21;26.23;;;15.13;;
1479;SDS011;732;51.698;4.886;2023-02-20T15:40:08;27.80;;;13.80;;
1479;SDS011;732;51.698;4.886;2023-02-20T15:42:49;22.73;;;11.83;;
1479;SDS011;732;51.698;4.886;2023-02-20T15:45:24;20.30;;;11.90;;
1479;SDS011;732;51.698;4.886;2023-02-20T15:47:56;24.40;;;10.10;;
1479;SDS011;732;51.698;4.886;2023-02-20T15:50:25;22.90;;;11.20;;
1479;SDS011;732;51.698;4.886;2023-02-20T15:52:54;21.97;;;10.27;;
1479;SDS011;732;51.698;4.886;2023-02-20T15:55:24;23.80;;;10.47;;
1479;SDS011;732;51.698;4.886;2023-02-20T15:57:54;23.30;;;15.50;;
1479;SDS011;732;51.698;4.886;2023-02-20T16:00:26;18.23;;;9.07;;
1479;SDS011;732;51.698;4.886;2023-02-20T16:02:58;17.93;;;8.60;;
1479;SDS011;732;51.698;4.886;2023-02-20T16:05:28;12.23;;;6.83;;
1479;SDS011;732;51.698;4.886;2023-02-20T16:07:57;13.30;;;7.70;;
1479;SDS011;732;51.698;4.886;2023-02-20T16:10:26;14.27;;;7.30;;
1479;SDS011;732;51.698;4.886;2023-02-20T16:12:55;11.77;;;7.50;;
1479;SDS011;732;51.698;4.886;2023-02-20T16:15:29;20.33;;;8.87;;
1479;SDS011;732;51.698;4.886;2023-02-20T16:17:57;18.50;;;8.60;;